sensor_id;sensor_type;location;lat;lon;timestamp;pressure;altitude;pressure_sealevel;temperature;humidity
55032;BME280;40928;51.076;7.950;2023-06-22T00:02:18;97348.31;;;17.29;100.00
55032;BME280;40928;51.076;7.950;2023-06-22T00:04:48;97348.59;;;17.23;100.00
55032;BME280;40928;51.076;7.950;2023-06-22T00:07:14;97343.47;;;17.21;100.00
55032;BME280;40928;51.076;7.950;2023-06-22T00:09:40;97342.38;;;17.22;100.00
55032;BME280;40928;51.076;7.950;2023-06-22T00:12:08;97336.19;;;17.22;100.00
55032;BME280;40928;51.076;7.950;2023-06-22T00:14:34;97339.97;;;17.20;100.00
55032;BME280;40928;51.076;7.950;2023-06-22T00:17:00;97340.78;;;17.21;100.00
55032;BME280;40928;51.076;7.950;2023-06-22T00:19:26;97338.91;;;17.16;100.00
55032;BME280;40928;51.076;7.950;2023-06-22T00:21:52;97339.97;;;17.15;100.00
55032;BME280;40928;51.076;7.950;2023-06-22T00:24:21;97338.91;;;17.16;100.00
55032;BME280;40928;51.076;7.950;2023-06-22T00:26:50;97341.59;;;17.16;100.00
55032;BME280;40928;51.076;7.950;2023-06-22T00:29:15;97342.13;;;17.18;100.00
55032;BME280;40928;51.076;7.950;2023-06-22T00:31:48;97342.69;;;17.20;100.00
55032;BME280;40928;51.076;7.950;2023-06-22T00:34:14;97336.19;;;17.22;100.00
55032;BME280;40928;51.076;7.950;2023-06-22T00:36:39;97334.28;;;17.22;100.00
55032;BME280;40928;51.076;7.950;2023-06-22T00:39:06;97334.03;;;17.24;100.00
55032;BME280;40928;51.076;7.950;2023-06-22T00:41:33;97332.66;;;17.26;100.00
55032;BME280;40928;51.076;7.950;2023-06-22T00:43:59;97333.50;;;17.27;100.00
55032;BME280;40928;51.076;7.950;2023-06-22T00:46:25;97342.38;;;17.27;100.00
55032;BME280;40928;51.076;7.950;2023-06-22T00:48:53;97332.91;;;17.30;100.00
55032;BME280;40928;51.076;7.950;2023-06-22T00:51:22;97334.00;;;17.29;100.00
55032;BME280;40928;51.076;7.950;2023-06-22T00:53:51;97336.19;;;17.27;100.00
55032;BME280;40928;51.076;7.950;2023-06-22T00:56:18;97338.59;;;17.28;100.00
55032;BME280;40928;51.076;7.950;2023-06-22T00:58:46;97345.34;;;17.31;100.00
55032;BME280;40928;51.076;7.950;2023-06-22T01:01:14;97338.31;;;17.30;100.00
55032;BME280;40928;51.076;7.950;2023-06-22T01:03:40;97338.06;;;17.31;100.00
55032;BME280;40928;51.076;7.950;2023-06-22T01:06:10;97336.69;;;17.34;100.00
55032;BME280;40928;51.076;7.950;2023-06-22T01:09:13;97347.22;;;17.35;100.00
55032;BME280;40928;51.076;7.950;2023-06-22T01:11:53;97344.25;;;17.37;100.00
55032;BME280;40928;51.076;7.950;2023-06-22T01:14:35;97342.38;;;17.32;100.00
55032;BME280;40928;51.076;7.950;2023-06-22T01:17:05;97347.47;;;17.39;100.00
55032;BME280;40928;51.076;7.950;2023-06-22T01:19:45;97353.69;;;17.40;100.00
55032;BME280;40928;51.076;7.950;2023-06-22T01:22:23;97351.50;;;17.42;100.00
55032;BME280;40928;51.076;7.950;2023-06-22T01:28:03;97347.44;;;17.44;100.00
55032;BME280;40928;51.076;7.950;2023-06-22T01:30:45;97343.94;;;17.44;100.00
55032;BME280;40928;51.076;7.950;2023-06-22T01:33:13;97344.75;;;17.44;100.00
55032;BME280;40928;51.076;7.950;2023-06-22T01:35:43;97335.56;;;17.45;100.00
55032;BME280;40928;51.076;7.950;2023-06-22T01:38:09;97331.00;;;17.46;100.00
55032;BME280;40928;51.076;7.950;2023-06-22T01:40:36;97322.34;;;17.44;100.00
55032;BME280;40928;51.076;7.950;2023-06-22T01:43:02;97327.50;;;17.40;100.00
55032;BME280;40928;51.076;7.950;2023-06-22T01:45:29;97322.13;;;17.35;100.00
55032;BME280;40928;51.076;7.950;2023-06-22T01:47:56;97319.97;;;17.32;100.00
55032;BME280;40928;51.076;7.950;2023-06-22T01:50:22;97327.50;;;17.35;100.00
55032;BME280;40928;51.076;7.950;2023-06-22T01:52:48;97321.03;;;17.36;100.00
55032;BME280;40928;51.076;7.950;2023-06-22T01:55:14;97322.66;;;17.37;100.00
55032;BME280;40928;51.076;7.950;2023-06-22T01:57:40;97333.69;;;17.41;100.00
55032;BME280;40928;51.076;7.950;2023-06-22T02:00:21;97335.06;;;17.43;100.00
55032;BME280;40928;51.076;7.950;2023-06-22T02:02:58;97335.06;;;17.43;100.00
55032;BME280;40928;51.076;7.950;2023-06-22T02:05:30;97334.47;;;17.46;100.00
55032;BME280;40928;51.076;7.950;2023-06-22T02:08:09;97331.78;;;17.46;100.00
55032;BME280;40928;51.076;7.950;2023-06-22T02:10:40;97333.16;;;17.44;100.00
55032;BME280;40928;51.076;7.950;2023-06-22T02:13:10;97329.13;;;17.41;100.00
55032;BME280;40928;51.076;7.950;2023-06-22T02:15:40;97326.44;;;17.41;100.00
55032;BME280;40928;51.076;7.950;2023-06-22T02:18:07;97336.41;;;17.41;100.00
55032;BME280;40928;51.076;7.950;2023-06-22T02:20:36;97328.31;;;17.41;100.00
55032;BME280;40928;51.076;7.950;2023-06-22T02:23:07;97317.78;;;17.39;100.00
55032;BME280;40928;51.076;7.950;2023-06-22T02:25:35;97323.44;;;17.38;100.00
55032;BME280;40928;51.076;7.950;2023-06-22T02:28:01;97317.78;;;17.39;100.00
55032;BME280;40928;51.076;7.950;2023-06-22T02:30:27;97323.44;;;17.43;100.00
55032;BME280;40928;51.076;7.950;2023-06-22T02:32:52;97313.47;;;17.43;100.00
55032;BME280;40928;51.076;7.950;2023-06-22T02:35:29;97314.78;;;17.46;100.00
55032;BME280;40928;51.076;7.950;2023-06-22T02:38:00;97320.19;;;17.46;100.00
55032;BME280;40928;51.076;7.950;2023-06-22T02:40:33;97313.72;;;17.47;100.00
55032;BME280;40928;51.076;7.950;2023-06-22T02:42:59;97306.41;;;17.47;100.00
55032;BME280;40928;51.076;7.950;2023-06-22T02:45:27;97312.63;;;17.48;100.00
55032;BME280;40928;51.076;7.950;2023-06-22T02:47:53;97298.31;;;17.47;100.00
55032;BME280;40928;51.076;7.950;2023-06-22T02:50:18;97303.44;;;17.49;100.00
55032;BME280;40928;51.076;7.950;2023-06-22T02:52:44;97302.63;;;17.48;100.00
55032;BME280;40928;51.076;7.950;2023-06-22T02:55:10;97292.38;;;17.45;100.00
55032;BME280;40928;51.076;7.950;2023-06-22T02:57:36;97286.72;;;17.42;100.00
55032;BME280;40928;51.076;7.950;2023-06-22T03:00:03;97277.53;;;17.43;100.00
55032;BME280;40928;51.076;7.950;2023-06-22T03:02:44;97286.47;;;17.43;100.00
55032;BME280;40928;51.076;7.950;2023-06-22T03:05:11;97289.19;;;17.38;100.00
55032;BME280;40928;51.076;7.950;2023-06-22T03:07:46;97289.97;;;17.39;100.00
55032;BME280;40928;51.076;7.950;2023-06-22T03:10:13;97283.22;;;17.41;100.00
55032;BME280;40928;51.076;7.950;2023-06-22T03:12:40;97277.78;;;17.46;100.00
55032;BME280;40928;51.076;7.950;2023-06-22T03:15:09;97273.22;;;17.47;100.00
55032;BME280;40928;51.076;7.950;2023-06-22T03:17:36;97278.63;;;17.47;100.00
55032;BME280;40928;51.076;7.950;2023-06-22T03:20:06;97265.38;;;17.45;100.00
55032;BME280;40928;51.076;7.950;2023-06-22T03:22:40;97264.88;;;17.43;100.00
55032;BME280;40928;51.076;7.950;2023-06-22T03:25:22;97265.66;;;17.44;100.00
55032;BME280;40928;51.076;7.950;2023-06-22T03:27:50;97269.16;;;17.44;100.00
55032;BME280;40928;51.076;7.950;2023-06-22T03:30:15;97271.84;;;17.49;100.00
55032;BME280;40928;51.076;7.950;2023-06-22T03:32:41;97265.91;;;17.53;100.00
55032;BME280;40928;51.076;7.950;2023-06-22T03:35:08;97267.50;;;17.54;100.00
55032;BME280;40928;51.076;7.950;2023-06-22T03:37:35;97268.31;;;17.54;100.00
55032;BME280;40928;51.076;7.950;2023-06-22T03:40:01;97273.97;;;17.58;100.00
55032;BME280;40928;51.076;7.950;2023-06-22T03:42:30;97272.38;;;17.57;100.00
55032;BME280;40928;51.076;7.950;2023-06-22T03:44:56;97277.47;;;17.58;100.00
55032;BME280;40928;51.076;7.950;2023-06-22T03:47:22;97293.97;;;17.57;100.00
55032;BME280;40928;51.076;7.950;2023-06-22T03:49:50;97291.03;;;17.48;100.00
55032;BME280;40928;51.076;7.950;2023-06-22T03:52:22;97298.84;;;17.49;100.00
55032;BME280;40928;51.076;7.950;2023-06-22T03:54:48;97295.06;;;17.50;100.00
55032;BME280;40928;51.076;7.950;2023-06-22T03:57:13;97296.13;;;17.55;100.00
55032;BME280;40928;51.076;7.950;2023-06-22T03:59:40;97289.88;;;17.59;100.00
55032;BME280;40928;51.076;7.950;2023-06-22T04:02:08;97295.00;;;17.61;100.00
55032;BME280;40928;51.076;7.950;2023-06-22T04:04:34;97295.53;;;17.63;100.00
55032;BME280;40928;51.076;7.950;2023-06-22T04:07:00;97293.91;;;17.62;100.00
55032;BME280;40928;51.076;7.950;2023-06-22T04:09:27;97298.22;;;17.63;100.00
55032;BME280;40928;51.076;7.950;2023-06-22T04:11:55;97283.16;;;17.57;100.00
55032;BME280;40928;51.076;7.950;2023-06-22T04:14:21;97288.56;;;17.57;100.00
55032;BME280;40928;51.076;7.950;2023-06-22T04:16:48;97290.97;;;17.58;100.00
55032;BME280;40928;51.076;7.950;2023-06-22T04:19:13;97293.38;;;17.60;100.00
55032;BME280;40928;51.076;7.950;2023-06-22T04:21:44;97299.38;;;17.52;100.00
55032;BME280;40928;51.076;7.950;2023-06-22T04:24:11;97297.75;;;17.50;100.00
55032;BME280;40928;51.076;7.950;2023-06-22T04:26:37;97295.31;;;17.54;100.00
55032;BME280;40928;51.076;7.950;2023-06-22T04:29:04;97292.31;;;17.61;100.00
55032;BME280;40928;51.076;7.950;2023-06-22T04:31:37;97304.41;;;17.69;100.00
55032;BME280;40928;51.076;7.950;2023-06-22T04:34:04;97300.63;;;17.70;100.00
55032;BME280;40928;51.076;7.950;2023-06-22T04:36:38;97300.91;;;17.68;100.00
55032;BME280;40928;51.076;7.950;2023-06-22T04:39:05;97306.88;;;17.65;100.00
55032;BME280;40928;51.076;7.950;2023-06-22T04:41:39;97304.69;;;17.67;100.00
55032;BME280;40928;51.076;7.950;2023-06-22T04:44:15;97302.00;;;17.72;100.00
55032;BME280;40928;51.076;7.950;2023-06-22T04:47:01;97295.50;;;17.73;100.00
55032;BME280;40928;51.076;7.950;2023-06-22T04:49:30;97296.28;;;17.74;100.00
55032;BME280;40928;51.076;7.950;2023-06-22T04:52:10;97298.69;;;17.75;100.00
55032;BME280;40928;51.076;7.950;2023-06-22T04:54:37;97299.25;;;17.77;100.00
55032;BME280;40928;51.076;7.950;2023-06-22T04:57:05;97294.66;;;17.78;100.00
55032;BME280;40928;51.076;7.950;2023-06-22T04:59:35;97293.28;;;17.80;100.00
55032;BME280;40928;51.076;7.950;2023-06-22T05:02:02;97287.31;;;17.84;100.00
55032;BME280;40928;51.076;7.950;2023-06-22T05:04:29;97301.38;;;17.86;100.00
55032;BME280;40928;51.076;7.950;2023-06-22T05:06:57;97294.31;;;17.90;100.00
55032;BME280;40928;51.076;7.950;2023-06-22T05:09:23;97306.47;;;17.87;100.00
55032;BME280;40928;51.076;7.950;2023-06-22T05:11:53;97307.03;;;17.84;100.00
55032;BME280;40928;51.076;7.950;2023-06-22T05:14:18;97295.72;;;17.82;100.00
55032;BME280;40928;51.076;7.950;2023-06-22T05:16:45;97290.56;;;17.86;100.00
55032;BME280;40928;51.076;7.950;2023-06-22T05:19:11;97289.72;;;17.90;100.00
55032;BME280;40928;51.076;7.950;2023-06-22T05:21:38;97285.09;;;17.96;100.00
55032;BME280;40928;51.076;7.950;2023-06-22T05:24:04;97285.88;;;18.02;100.00
55032;BME280;40928;51.076;7.950;2023-06-22T05:26:54;97281.53;;;18.06;100.00
55032;BME280;40928;51.076;7.950;2023-06-22T05:29:46;97268.53;;;18.13;100.00
55032;BME280;40928;51.076;7.950;2023-06-22T05:32:12;97264.16;;;18.17;100.00
55032;BME280;40928;51.076;7.950;2023-06-22T05:34:38;97266.00;;;18.22;100.00
55032;BME280;40928;51.076;7.950;2023-06-22T05:37:04;97268.72;;;18.22;100.00
55032;BME280;40928;51.076;7.950;2023-06-22T05:39:29;97273.09;;;18.18;100.00
55032;BME280;40928;51.076;7.950;2023-06-22T05:41:55;97272.78;;;18.19;100.00
55032;BME280;40928;51.076;7.950;2023-06-22T05:44:20;97274.63;;;18.24;100.00
55032;BME280;40928;51.076;7.950;2023-06-22T05:46:46;97274.09;;;18.27;100.00
55032;BME280;40928;51.076;7.950;2023-06-22T05:49:13;97268.34;;;18.34;100.00
55032;BME280;40928;51.076;7.950;2023-06-22T05:51:39;97275.03;;;18.41;100.00
55032;BME280;40928;51.076;7.950;2023-06-22T05:54:05;97280.94;;;18.49;100.00
55032;BME280;40928;51.076;7.950;2023-06-22T05:56:31;97278.16;;;18.54;100.00
55032;BME280;40928;51.076;7.950;2023-06-22T05:58:57;97273.56;;;18.60;100.00
55032;BME280;40928;51.076;7.950;2023-06-22T06:01:25;97281.41;;;18.56;100.00
55032;BME280;40928;51.076;7.950;2023-06-22T06:03:51;97275.75;;;18.52;100.00
55032;BME280;40928;51.076;7.950;2023-06-22T06:06:18;97274.63;;;18.59;100.00
55032;BME280;40928;51.076;7.950;2023-06-22T06:08:54;97268.06;;;18.65;100.00
55032;BME280;40928;51.076;7.950;2023-06-22T06:11:21;97270.16;;;18.73;100.00
55032;BME280;40928;51.076;7.950;2023-06-22T06:13:47;97274.16;;;18.81;100.00
55032;BME280;40928;51.076;7.950;2023-06-22T06:16:12;97270.25;;;18.92;100.00
55032;BME280;40928;51.076;7.950;2023-06-22T06:18:38;97279.66;;;19.00;100.00
55032;BME280;40928;51.076;7.950;2023-06-22T06:21:03;97277.66;;;19.11;100.00
55032;BME280;40928;51.076;7.950;2023-06-22T06:23:29;97276.78;;;19.15;100.00
55032;BME280;40928;51.076;7.950;2023-06-22T06:25:54;97271.31;;;19.21;100.00
55032;BME280;40928;51.076;7.950;2023-06-22T06:28:24;97280.09;;;19.31;100.00
55032;BME280;40928;51.076;7.950;2023-06-22T06:30:50;97269.53;;;19.35;100.00
55032;BME280;40928;51.076;7.950;2023-06-22T06:33:17;97275.94;;;19.39;100.00
55032;BME280;40928;51.076;7.950;2023-06-22T06:35:42;97275.66;;;19.41;100.00
55032;BME280;40928;51.076;7.950;2023-06-22T06:38:08;97270.78;;;19.43;100.00
55032;BME280;40928;51.076;7.950;2023-06-22T06:40:36;97268.28;;;19.46;100.00
55032;BME280;40928;51.076;7.950;2023-06-22T06:43:02;97264.69;;;19.51;100.00
55032;BME280;40928;51.076;7.950;2023-06-22T06:45:28;97263.03;;;19.55;100.00
55032;BME280;40928;51.076;7.950;2023-06-22T06:47:54;97260.25;;;19.60;100.00
55032;BME280;40928;51.076;7.950;2023-06-22T06:50:20;97258.50;;;19.70;100.00
55032;BME280;40928;51.076;7.950;2023-06-22T06:52:46;97252.91;;;19.80;100.00
55032;BME280;40928;51.076;7.950;2023-06-22T06:55:12;97255.28;;;19.87;100.00
55032;BME280;40928;51.076;7.950;2023-06-22T06:57:38;97254.56;;;20.00;100.00
55032;BME280;40928;51.076;7.950;2023-06-22T07:00:06;97252.50;;;20.11;100.00
55032;BME280;40928;51.076;7.950;2023-06-22T07:02:40;97259.66;;;20.21;100.00
55032;BME280;40928;51.076;7.950;2023-06-22T07:05:07;97255.97;;;20.31;100.00
55032;BME280;40928;51.076;7.950;2023-06-22T07:07:32;97262.84;;;20.42;100.00
55032;BME280;40928;51.076;7.950;2023-06-22T07:09:58;97271.41;;;20.49;100.00
55032;BME280;40928;51.076;7.950;2023-06-22T07:12:24;97263.00;;;20.65;100.00
55032;BME280;40928;51.076;7.950;2023-06-22T07:14:49;97265.47;;;20.80;100.00
55032;BME280;40928;51.076;7.950;2023-06-22T07:17:20;97261.16;;;20.93;100.00
55032;BME280;40928;51.076;7.950;2023-06-22T07:19:49;97253.31;;;21.06;100.00
55032;BME280;40928;51.076;7.950;2023-06-22T07:22:14;97246.38;;;21.13;100.00
55032;BME280;40928;51.076;7.950;2023-06-22T07:24:40;97239.53;;;21.16;100.00
55032;BME280;40928;51.076;7.950;2023-06-22T07:27:06;97237.00;;;21.20;100.00
55032;BME280;40928;51.076;7.950;2023-06-22T07:29:32;97236.59;;;21.26;100.00
55032;BME280;40928;51.076;7.950;2023-06-22T07:31:58;97231.97;;;21.27;100.00
55032;BME280;40928;51.076;7.950;2023-06-22T07:34:29;97223.84;;;21.27;100.00
55032;BME280;40928;51.076;7.950;2023-06-22T07:36:57;97215.47;;;21.37;100.00
55032;BME280;40928;51.076;7.950;2023-06-22T07:39:23;97212.84;;;21.46;100.00
55032;BME280;40928;51.076;7.950;2023-06-22T07:41:51;97204.47;;;21.56;100.00
55032;BME280;40928;51.076;7.950;2023-06-22T07:44:17;97216.59;;;21.73;100.00
55032;BME280;40928;51.076;7.950;2023-06-22T07:46:45;97223.28;;;21.89;100.00
55032;BME280;40928;51.076;7.950;2023-06-22T07:49:12;97231.66;;;21.93;100.00
55032;BME280;40928;51.076;7.950;2023-06-22T07:51:37;97226.72;;;21.95;100.00
55032;BME280;40928;51.076;7.950;2023-06-22T07:54:03;97237.28;;;21.97;100.00
55032;BME280;40928;51.076;7.950;2023-06-22T07:56:31;97232.03;;;22.00;100.00
55032;BME280;40928;51.076;7.950;2023-06-22T07:59:04;97231.28;;;22.09;100.00
55032;BME280;40928;51.076;7.950;2023-06-22T08:01:30;97228.44;;;22.14;100.00
55032;BME280;40928;51.076;7.950;2023-06-22T08:04:10;97219.84;;;22.20;100.00
55032;BME280;40928;51.076;7.950;2023-06-22T08:06:35;97223.72;;;22.28;100.00
55032;BME280;40928;51.076;7.950;2023-06-22T08:09:07;97221.22;;;22.32;100.00
55032;BME280;40928;51.076;7.950;2023-06-22T08:11:35;97219.84;;;22.43;100.00
55032;BME280;40928;51.076;7.950;2023-06-22T08:14:01;97217.00;;;22.48;100.00
55032;BME280;40928;51.076;7.950;2023-06-22T08:16:26;97215.75;;;22.55;100.00
55032;BME280;40928;51.076;7.950;2023-06-22T08:18:55;97219.16;;;22.69;100.00
55032;BME280;40928;51.076;7.950;2023-06-22T08:21:21;97211.22;;;22.73;100.00
55032;BME280;40928;51.076;7.950;2023-06-22T08:23:47;97204.97;;;22.81;100.00
55032;BME280;40928;51.076;7.950;2023-06-22T08:26:16;97195.59;;;22.96;100.00
55032;BME280;40928;51.076;7.950;2023-06-22T08:28:42;97206.97;;;23.07;100.00
55032;BME280;40928;51.076;7.950;2023-06-22T08:31:08;97199.03;;;23.19;100.00
55032;BME280;40928;51.076;7.950;2023-06-22T08:33:33;97199.72;;;23.34;100.00
55032;BME280;40928;51.076;7.950;2023-06-22T08:35:59;97204.69;;;23.40;100.00
55032;BME280;40928;51.076;7.950;2023-06-22T08:38:25;97203.59;;;23.50;100.00
55032;BME280;40928;51.076;7.950;2023-06-22T08:40:54;97202.78;;;23.59;100.00
55032;BME280;40928;51.076;7.950;2023-06-22T08:43:22;97193.13;;;23.52;100.00
55032;BME280;40928;51.076;7.950;2023-06-22T08:45:47;97191.53;;;23.60;100.00
55032;BME280;40928;51.076;7.950;2023-06-22T08:48:13;97190.28;;;23.75;100.00
55032;BME280;40928;51.076;7.950;2023-06-22T08:50:42;97182.88;;;23.93;100.00
55032;BME280;40928;51.076;7.950;2023-06-22T08:53:07;97178.06;;;24.16;100.00
55032;BME280;40928;51.076;7.950;2023-06-22T08:55:36;97171.78;;;24.25;100.00
55032;BME280;40928;51.076;7.950;2023-06-22T08:58:05;97168.53;;;24.40;100.00
55032;BME280;40928;51.076;7.950;2023-06-22T09:00:34;97160.00;;;24.42;100.00
55032;BME280;40928;51.076;7.950;2023-06-22T09:03:03;97156.31;;;24.46;100.00
55032;BME280;40928;51.076;7.950;2023-06-22T09:05:29;97161.09;;;24.50;100.00
55032;BME280;40928;51.076;7.950;2023-06-22T09:07:56;97159.97;;;24.51;100.00
55032;BME280;40928;51.076;7.950;2023-06-22T09:10:22;97158.03;;;24.60;100.00
55032;BME280;40928;51.076;7.950;2023-06-22T09:12:47;97159.44;;;24.66;100.00
55032;BME280;40928;51.076;7.950;2023-06-22T09:15:13;97152.50;;;24.77;100.00
55032;BME280;40928;51.076;7.950;2023-06-22T09:17:40;97154.72;;;24.84;100.00
55032;BME280;40928;51.076;7.950;2023-06-22T09:20:06;97152.09;;;24.97;100.00
55032;BME280;40928;51.076;7.950;2023-06-22T09:22:32;97142.34;;;24.87;100.00
55032;BME280;40928;51.076;7.950;2023-06-22T09:24:59;97145.25;;;24.82;100.00
55032;BME280;40928;51.076;7.950;2023-06-22T09:27:25;97143.13;;;24.87;100.00
55032;BME280;40928;51.076;7.950;2023-06-22T09:29:52;97145.69;;;24.92;100.00
55032;BME280;40928;51.076;7.950;2023-06-22T09:32:17;97150.16;;;24.97;100.00
55032;BME280;40928;51.076;7.950;2023-06-22T09:34:43;97150.09;;;25.06;100.00
55032;BME280;40928;51.076;7.950;2023-06-22T09:37:08;97136.75;;;25.13;100.00
55032;BME280;40928;51.076;7.950;2023-06-22T09:39:34;97129.13;;;25.19;100.00
55032;BME280;40928;51.076;7.950;2023-06-22T09:42:00;97113.81;;;25.27;100.00
55032;BME280;40928;51.076;7.950;2023-06-22T09:44:25;97110.19;;;25.35;100.00
55032;BME280;40928;51.076;7.950;2023-06-22T09:46:51;97108.75;;;25.37;100.00
55032;BME280;40928;51.076;7.950;2023-06-22T09:49:16;97104.22;;;25.42;100.00
55032;BME280;40928;51.076;7.950;2023-06-22T09:51:42;97086.16;;;25.49;100.00
55032;BME280;40928;51.076;7.950;2023-06-22T09:54:07;97090.75;;;25.36;100.00
55032;BME280;40928;51.076;7.950;2023-06-22T09:56:33;97088.44;;;25.38;100.00
55032;BME280;40928;51.076;7.950;2023-06-22T09:58:59;97080.22;;;25.47;100.00
55032;BME280;40928;51.076;7.950;2023-06-22T10:01:25;97087.09;;;25.53;100.00
55032;BME280;40928;51.076;7.950;2023-06-22T10:03:55;97081.06;;;25.60;97.84
55032;BME280;40928;51.076;7.950;2023-06-22T10:06:21;97076.31;;;25.69;97.11
55032;BME280;40928;51.076;7.950;2023-06-22T10:08:53;97072.19;;;25.63;93.33
55032;BME280;40928;51.076;7.950;2023-06-22T10:11:19;97054.41;;;25.57;95.26
55032;BME280;40928;51.076;7.950;2023-06-22T10:13:45;97060.22;;;25.56;94.33
55032;BME280;40928;51.076;7.950;2023-06-22T10:16:10;97052.69;;;25.52;94.49
55032;BME280;40928;51.076;7.950;2023-06-22T10:18:36;97053.81;;;25.51;93.07
55032;BME280;40928;51.076;7.950;2023-06-22T10:21:05;97057.22;;;25.48;93.53
55032;BME280;40928;51.076;7.950;2023-06-22T10:23:30;97056.13;;;25.41;94.74
55032;BME280;40928;51.076;7.950;2023-06-22T10:25:56;97045.19;;;25.41;91.88
55032;BME280;40928;51.076;7.950;2023-06-22T10:28:26;97044.69;;;25.26;94.09
55032;BME280;40928;51.076;7.950;2023-06-22T10:30:52;97040.28;;;25.13;93.63
55032;BME280;40928;51.076;7.950;2023-06-22T10:33:19;97035.25;;;25.02;94.09
55032;BME280;40928;51.076;7.950;2023-06-22T10:35:48;97044.28;;;24.94;94.42
55032;BME280;40928;51.076;7.950;2023-06-22T10:38:14;97043.38;;;24.90;95.28
55032;BME280;40928;51.076;7.950;2023-06-22T10:40:42;97049.38;;;24.83;96.92
55032;BME280;40928;51.076;7.950;2023-06-22T10:43:12;97051.03;;;24.75;96.46
55032;BME280;40928;51.076;7.950;2023-06-22T10:45:43;97040.56;;;24.69;97.48
55032;BME280;40928;51.076;7.950;2023-06-22T10:48:09;97042.22;;;24.61;99.50
55032;BME280;40928;51.076;7.950;2023-06-22T10:50:35;97034.59;;;24.45;97.50
55032;BME280;40928;51.076;7.950;2023-06-22T10:53:02;97032.25;;;24.35;99.00
55032;BME280;40928;51.076;7.950;2023-06-22T10:55:27;97026.81;;;24.35;100.00
55032;BME280;40928;51.076;7.950;2023-06-22T10:57:57;97028.75;;;24.35;100.00
55032;BME280;40928;51.076;7.950;2023-06-22T11:00:22;97032.78;;;24.28;100.00
55032;BME280;40928;51.076;7.950;2023-06-22T11:02:48;97032.50;;;24.21;100.00
55032;BME280;40928;51.076;7.950;2023-06-22T11:05:14;97035.06;;;24.17;100.00
55032;BME280;40928;51.076;7.950;2023-06-22T11:07:42;97023.22;;;24.13;100.00
55032;BME280;40928;51.076;7.950;2023-06-22T11:10:13;97030.13;;;24.11;100.00
55032;BME280;40928;51.076;7.950;2023-06-22T11:12:38;97038.03;;;24.04;100.00
55032;BME280;40928;51.076;7.950;2023-06-22T11:15:06;97070.16;;;23.98;100.00
55032;BME280;40928;51.076;7.950;2023-06-22T11:17:32;97082.78;;;23.94;100.00
55032;BME280;40928;51.076;7.950;2023-06-22T11:19:58;97110.72;;;23.82;100.00
55032;BME280;40928;51.076;7.950;2023-06-22T11:22:25;97132.25;;;23.66;100.00
55032;BME280;40928;51.076;7.950;2023-06-22T11:24:51;97126.78;;;23.57;100.00
55032;BME280;40928;51.076;7.950;2023-06-22T11:27:25;97098.25;;;23.37;100.00
55032;BME280;40928;51.076;7.950;2023-06-22T11:29:51;97096.47;;;23.23;100.00
55032;BME280;40928;51.076;7.950;2023-06-22T11:32:18;97095.03;;;23.17;100.00
55032;BME280;40928;51.076;7.950;2023-06-22T11:34:46;97090.69;;;23.16;100.00
55032;BME280;40928;51.076;7.950;2023-06-22T11:37:12;97078.34;;;23.10;100.00
55032;BME280;40928;51.076;7.950;2023-06-22T11:39:38;97082.03;;;23.14;100.00
55032;BME280;40928;51.076;7.950;2023-06-22T11:42:03;97056.53;;;23.01;100.00
55032;BME280;40928;51.076;7.950;2023-06-22T11:44:29;97049.19;;;22.93;100.00
55032;BME280;40928;51.076;7.950;2023-06-22T11:47:00;97041.97;;;22.88;100.00
55032;BME280;40928;51.076;7.950;2023-06-22T11:49:29;97050.91;;;22.71;100.00
55032;BME280;40928;51.076;7.950;2023-06-22T11:51:54;97042.91;;;22.57;100.00
55032;BME280;40928;51.076;7.950;2023-06-22T11:54:20;97030.41;;;22.56;100.00
55032;BME280;40928;51.076;7.950;2023-06-22T11:56:46;97029.44;;;22.52;100.00
55032;BME280;40928;51.076;7.950;2023-06-22T11:59:11;97030.06;;;22.49;100.00
55032;BME280;40928;51.076;7.950;2023-06-22T12:01:37;97036.13;;;22.46;100.00
55032;BME280;40928;51.076;7.950;2023-06-22T12:04:02;97034.16;;;22.38;100.00
55032;BME280;40928;51.076;7.950;2023-06-22T12:06:37;97035.13;;;22.33;100.00
55032;BME280;40928;51.076;7.950;2023-06-22T12:09:03;97077.25;;;22.13;100.00
55032;BME280;40928;51.076;7.950;2023-06-22T12:11:31;97103.25;;;21.96;100.00
55032;BME280;40928;51.076;7.950;2023-06-22T12:13:56;97089.91;;;21.86;100.00
55032;BME280;40928;51.076;7.950;2023-06-22T12:16:27;97062.56;;;21.82;100.00
55032;BME280;40928;51.076;7.950;2023-06-22T12:18:53;97031.22;;;21.85;100.00
55032;BME280;40928;51.076;7.950;2023-06-22T12:21:19;97027.56;;;21.89;100.00
55032;BME280;40928;51.076;7.950;2023-06-22T12:23:44;97013.81;;;21.86;100.00
55032;BME280;40928;51.076;7.950;2023-06-22T12:26:10;97019.06;;;21.82;100.00
55032;BME280;40928;51.076;7.950;2023-06-22T12:28:35;97051.53;;;21.79;100.00
55032;BME280;40928;51.076;7.950;2023-06-22T12:31:01;97040.28;;;21.71;100.00
55032;BME280;40928;51.076;7.950;2023-06-22T12:33:27;97046.66;;;21.67;100.00
55032;BME280;40928;51.076;7.950;2023-06-22T12:35:52;97041.50;;;21.65;100.00
55032;BME280;40928;51.076;7.950;2023-06-22T12:38:18;97021.38;;;21.66;100.00
55032;BME280;40928;51.076;7.950;2023-06-22T12:40:43;97002.69;;;21.65;100.00
55032;BME280;40928;51.076;7.950;2023-06-22T12:43:09;96989.50;;;21.58;100.00
55032;BME280;40928;51.076;7.950;2023-06-22T12:45:37;96990.53;;;21.39;100.00
55032;BME280;40928;51.076;7.950;2023-06-22T12:48:05;96983.34;;;21.43;100.00
55032;BME280;40928;51.076;7.950;2023-06-22T12:50:30;96983.66;;;21.42;100.00
55032;BME280;40928;51.076;7.950;2023-06-22T12:52:56;96968.34;;;21.46;100.00
55032;BME280;40928;51.076;7.950;2023-06-22T12:55:22;96955.78;;;21.59;100.00
55032;BME280;40928;51.076;7.950;2023-06-22T12:57:48;96944.41;;;21.80;100.00